Mt View, North Carolina
Current Conditions -  °F | °C
As of 3:53 PM on Tuesday 25 Nov 2014 (Local Time) from KHKY Reporting Station
Clear Clear  
Wind Chill: 57°   Ceiling: Unl
Heat Index: 57°   Visibility: 10mi
Dew Point: 27°   Wind: 0mph
Humidity: 32%   Direction: NA
Pressure: 30.01"   Gusts: NA
Location:  35.6584°N, 81.3878°W
Report Text: KHKY 252053Z 00000KT 10SM CLR 14/M03 A3001 RMK AO2 SLP149 T01391028 56011
Loading
Personal Weather Stations






























Interactive Weather Map New forecast layout! Learn more

10-Day Weather Forecast

Advertisements
Track Severe Weather on mobile